createdAt,value
2022-10-06T00:00:40.347Z,101199.63
2022-10-06T00:03:07.860Z,101204.66
2022-10-06T00:05:36.012Z,101212.56
2022-10-06T00:08:03.721Z,101210.88
2022-10-06T00:10:31.820Z,101211.03
2022-10-06T00:12:59.474Z,101207.72
2022-10-06T00:15:29.528Z,101236.28
2022-10-06T00:17:59.134Z,101229.53
2022-10-06T00:20:27.884Z,101235.94
2022-10-06T00:22:56.957Z,101244.72
2022-10-06T00:25:25.426Z,101256.31
2022-10-06T00:27:53.959Z,101244.97
2022-10-06T00:30:23.773Z,101256.47
2022-10-06T00:32:53.061Z,101259.97
2022-10-06T00:35:22.702Z,101261.16
2022-10-06T00:37:50.383Z,101272.56
2022-10-06T00:40:18.632Z,101270.84
2022-10-06T00:42:51.979Z,101282.44
2022-10-06T00:45:22.815Z,101289.75
2022-10-06T00:47:50.331Z,101299.16
2022-10-06T00:50:17.915Z,101297.75
2022-10-06T00:52:46.993Z,101306.09
2022-10-06T00:55:15.083Z,101315.88
2022-10-06T00:57:42.760Z,101315.88
2022-10-06T01:00:11.295Z,101316.13
2022-10-06T01:02:42.540Z,101325.75
2022-10-06T01:05:13.079Z,101320.53
2022-10-06T01:07:40.601Z,101338.53
2022-10-06T01:10:10.111Z,101339.59
2022-10-06T01:12:37.626Z,101344.00
2022-10-06T01:15:06.143Z,101354.19
2022-10-06T01:17:37.086Z,101350.03
2022-10-06T01:20:08.819Z,101356.19
2022-10-06T01:22:39.400Z,101354.06
2022-10-06T01:25:09.060Z,101362.00
2022-10-06T01:27:37.313Z,101371.34
2022-10-06T01:30:06.663Z,101380.53
2022-10-06T01:32:35.921Z,101385.97
2022-10-06T01:35:03.515Z,101390.31
2022-10-06T01:37:31.030Z,101378.44
2022-10-06T01:39:59.935Z,101383.19
2022-10-06T01:42:31.677Z,101397.50
2022-10-06T01:44:59.315Z,101401.59
2022-10-06T01:47:26.828Z,101405.41
2022-10-06T01:49:54.447Z,101403.75
2022-10-06T01:52:22.395Z,101403.69
2022-10-06T01:54:49.930Z,101401.75
2022-10-06T01:57:18.823Z,101395.75
2022-10-06T01:59:46.359Z,101401.34
2022-10-06T02:02:13.883Z,101407.97
2022-10-06T02:04:41.420Z,101411.81
2022-10-06T02:07:09.135Z,101412.75
2022-10-06T02:09:36.703Z,101434.81
2022-10-06T02:12:04.830Z,101433.81
2022-10-06T02:14:34.710Z,101425.97
2022-10-06T02:17:02.385Z,101435.09
2022-10-06T02:19:29.927Z,101444.25
2022-10-06T02:21:58.215Z,101447.53
2022-10-06T02:24:26.005Z,101452.66
2022-10-06T02:26:54.089Z,101447.94
2022-10-06T02:29:21.988Z,101443.53
2022-10-06T02:31:51.400Z,101456.22
2022-10-06T02:34:18.912Z,101470.84
2022-10-06T02:36:46.431Z,101471.06
2022-10-06T02:39:13.932Z,101483.00
2022-10-06T02:41:41.448Z,101482.00
2022-10-06T02:44:08.984Z,101480.44
2022-10-06T02:46:37.188Z,101490.84
2022-10-06T02:49:06.093Z,101500.72
2022-10-06T02:51:34.313Z,101501.94
2022-10-06T02:54:01.815Z,101495.16
2022-10-06T02:56:29.388Z,101511.44
2022-10-06T02:58:56.916Z,101519.47
2022-10-06T03:01:26.812Z,101519.03
2022-10-06T03:03:55.015Z,101533.28
2022-10-06T03:06:25.820Z,101539.63
2022-10-06T03:08:54.989Z,101542.84
2022-10-06T03:11:24.731Z,101547.41
2022-10-06T03:13:52.915Z,101547.25
2022-10-06T03:16:22.929Z,101542.25
2022-10-06T03:18:52.193Z,101559.19
2022-10-06T03:21:20.176Z,101560.31
2022-10-06T03:23:50.962Z,101564.88
2022-10-06T03:26:20.495Z,101558.88
2022-10-06T03:28:48.393Z,101567.63
2022-10-06T03:31:17.826Z,101567.22
2022-10-06T03:33:45.564Z,101571.50
2022-10-06T03:36:15.191Z,101573.28
2022-10-06T03:38:42.859Z,101583.19
2022-10-06T03:41:13.741Z,101583.31
2022-10-06T03:43:43.013Z,101583.31
2022-10-06T03:46:12.371Z,101587.78
2022-10-06T03:48:40.359Z,101597.34
2022-10-06T03:51:09.346Z,101592.41
2022-10-06T03:53:37.053Z,101601.25
2022-10-06T03:56:06.212Z,101605.09
2022-10-06T03:58:36.815Z,101606.81
2022-10-06T04:01:07.593Z,101610.75
2022-10-06T04:03:35.570Z,101615.03
2022-10-06T04:06:06.627Z,101626.31
2022-10-06T04:08:35.276Z,101635.38
2022-10-06T04:11:07.187Z,101634.75
2022-10-06T04:13:36.370Z,101641.25
2022-10-06T04:16:11.364Z,101642.91
2022-10-06T04:18:39.103Z,101657.91
2022-10-06T04:21:07.005Z,101664.03
2022-10-06T04:23:36.409Z,101660.16
2022-10-06T04:26:06.357Z,101659.25
2022-10-06T04:28:34.620Z,101670.63
2022-10-06T04:31:04.497Z,101673.44
2022-10-06T04:33:34.170Z,101676.19
2022-10-06T04:36:03.480Z,101688.22
2022-10-06T04:38:33.651Z,101686.63
2022-10-06T04:41:05.636Z,101699.91
2022-10-06T04:43:33.151Z,101700.06
2022-10-06T04:46:13.091Z,101696.06
2022-10-06T04:48:52.860Z,101699.16
2022-10-06T04:51:20.971Z,101710.56
2022-10-06T04:53:49.328Z,101707.34
2022-10-06T04:56:18.648Z,101716.13
2022-10-06T04:58:47.805Z,101716.28
2022-10-06T05:01:16.589Z,101724.19
2022-10-06T05:03:44.435Z,101730.19
2022-10-06T05:06:14.943Z,101728.88
2022-10-06T05:08:43.178Z,101740.19
2022-10-06T05:11:15.191Z,101743.63
2022-10-06T05:13:45.988Z,101742.09
2022-10-06T05:16:15.904Z,101742.94
2022-10-06T05:18:43.581Z,101748.25
2022-10-06T05:21:14.340Z,101757.78
2022-10-06T05:23:43.562Z,101758.88
2022-10-06T05:26:12.276Z,101766.63
2022-10-06T05:28:40.464Z,101770.25
2022-10-06T05:31:11.364Z,101772.94
2022-10-06T05:33:39.460Z,101781.00
2022-10-06T05:36:08.712Z,101780.34
2022-10-06T05:38:37.685Z,101787.38
2022-10-06T05:41:07.169Z,101789.16
2022-10-06T05:43:35.400Z,101796.25
2022-10-06T05:46:05.752Z,101798.06
2022-10-06T05:48:33.914Z,101806.97
2022-10-06T05:51:02.762Z,101808.78
2022-10-06T05:53:31.806Z,101807.19
2022-10-06T05:56:09.135Z,101814.91
2022-10-06T05:58:38.298Z,101816.75
2022-10-06T06:01:13.600Z,101823.41
2022-10-06T06:03:43.200Z,101825.41
2022-10-06T06:06:17.891Z,101832.28
2022-10-06T06:08:45.862Z,101836.72
2022-10-06T06:11:14.861Z,101839.47
2022-10-06T06:13:42.385Z,101842.75
2022-10-06T06:16:14.730Z,101847.25
2022-10-06T06:18:42.491Z,101856.00
2022-10-06T06:21:11.132Z,101857.69
2022-10-06T06:23:40.314Z,101866.28
2022-10-06T06:26:09.169Z,101866.28
2022-10-06T06:28:38.295Z,101869.59
2022-10-06T06:31:08.079Z,101876.53
2022-10-06T06:33:37.552Z,101877.28
2022-10-06T06:36:05.417Z,101885.06
2022-10-06T06:38:33.283Z,101882.53
2022-10-06T06:41:01.121Z,101887.44
2022-10-06T06:43:29.315Z,101891.75
2022-10-06T06:46:04.348Z,101881.00
2022-10-06T06:48:32.486Z,101890.75
2022-10-06T06:51:00.303Z,101896.75
2022-10-06T06:53:27.864Z,101900.25
2022-10-06T06:55:55.386Z,101907.53
2022-10-06T06:58:22.907Z,101897.09
2022-10-06T07:00:50.715Z,101913.44
2022-10-06T07:03:52.147Z,101912.56
2022-10-06T07:06:11.591Z,101918.44
2022-10-06T07:08:42.580Z,101921.84
2022-10-06T07:11:15.065Z,101925.13
2022-10-06T07:13:43.097Z,101923.13
2022-10-06T07:16:29.653Z,101926.47
2022-10-06T07:19:18.256Z,101926.34
2022-10-06T07:22:08.690Z,101935.47
2022-10-06T07:24:53.927Z,101942.09
2022-10-06T07:27:21.470Z,101949.81
2022-10-06T07:29:54.372Z,101944.44
2022-10-06T07:32:22.503Z,101952.28
2022-10-06T07:34:52.025Z,101951.03
2022-10-06T07:37:20.145Z,101952.69
2022-10-06T07:39:49.434Z,101964.88
2022-10-06T07:42:17.446Z,101962.56
2022-10-06T07:45:05.792Z,101971.00
2022-10-06T07:47:33.476Z,101972.84
2022-10-06T07:50:02.417Z,101976.06
2022-10-06T07:52:29.948Z,101981.22
2022-10-06T07:54:58.474Z,101986.03
2022-10-06T07:57:26.781Z,101988.91
2022-10-06T07:59:57.997Z,102003.28
2022-10-06T08:02:31.463Z,102001.28
2022-10-06T08:05:03.821Z,102005.81
2022-10-06T08:07:31.338Z,102008.50
2022-10-06T08:09:58.904Z,102016.53
2022-10-06T08:12:37.668Z,102019.50
2022-10-06T08:15:07.600Z,102024.44
2022-10-06T08:17:36.481Z,102032.03
2022-10-06T08:20:06.571Z,102041.00
2022-10-06T08:22:34.281Z,102047.41
2022-10-06T08:25:08.467Z,102051.53
2022-10-06T08:27:37.463Z,102048.09
2022-10-06T08:30:06.435Z,102054.97
2022-10-06T08:32:34.161Z,102052.91
2022-10-06T08:35:01.715Z,102061.09
2022-10-06T08:37:30.748Z,102064.63
2022-10-06T08:39:58.494Z,102071.38
2022-10-06T08:42:31.894Z,102067.06
2022-10-06T08:45:01.721Z,102077.53
2022-10-06T08:47:33.451Z,102074.47
2022-10-06T08:50:01.443Z,102077.91
2022-10-06T08:52:46.120Z,102076.50
2022-10-06T08:55:24.277Z,102084.84
2022-10-06T08:58:02.979Z,102076.38
2022-10-06T09:00:33.058Z,102079.94
2022-10-06T09:03:01.264Z,102084.91
2022-10-06T09:05:30.671Z,102089.16
2022-10-06T09:08:16.161Z,102082.41
2022-10-06T09:10:45.533Z,102090.22
2022-10-06T09:13:18.397Z,102091.94
2022-10-06T09:15:51.093Z,102095.63
2022-10-06T09:18:22.122Z,102102.13
2022-10-06T09:20:53.812Z,102106.06
2022-10-06T09:23:42.816Z,102100.06
2022-10-06T09:26:13.818Z,102111.16
2022-10-06T09:28:41.791Z,102112.78
2022-10-06T09:31:21.078Z,102116.00
2022-10-06T09:33:49.972Z,102119.78
2022-10-06T09:36:17.599Z,102125.81
2022-10-06T09:38:53.834Z,102119.00
2022-10-06T09:41:24.275Z,102135.50
2022-10-06T09:43:55.150Z,102140.72
2022-10-06T09:46:28.945Z,102133.66
2022-10-06T09:49:08.308Z,102152.91
2022-10-06T09:51:36.537Z,102151.81
2022-10-06T09:54:14.366Z,102156.84
2022-10-06T09:56:43.293Z,102155.72
2022-10-06T09:59:20.710Z,102159.09
2022-10-06T10:01:55.247Z,102156.38
2022-10-06T10:04:24.836Z,102159.09
2022-10-06T10:06:53.314Z,102156.50
2022-10-06T10:09:31.309Z,102154.22
2022-10-06T10:12:27.636Z,102160.03
2022-10-06T10:14:57.817Z,102171.25
2022-10-06T10:17:35.780Z,102150.13
2022-10-06T10:20:04.677Z,102171.47
2022-10-06T10:22:36.253Z,102152.41
2022-10-06T10:25:14.382Z,102167.56
2022-10-06T10:27:49.425Z,102167.56
2022-10-06T10:30:17.163Z,102164.34
2022-10-06T10:32:52.761Z,102166.31
2022-10-06T10:35:26.171Z,102164.50
2022-10-06T10:37:59.245Z,102156.38
2022-10-06T10:40:38.759Z,102152.97
2022-10-06T10:43:15.684Z,102162.44
2022-10-06T10:45:47.154Z,102158.00
2022-10-06T10:48:17.809Z,102179.97
2022-10-06T10:50:51.208Z,102177.81
2022-10-06T10:53:23.872Z,102185.22
2022-10-06T10:55:53.960Z,102188.75
2022-10-06T10:58:24.285Z,102192.13
2022-10-06T11:00:56.068Z,102190.91
2022-10-06T11:03:23.672Z,102184.91
2022-10-06T11:06:23.482Z,102188.09
2022-10-06T11:08:56.544Z,102186.00
2022-10-06T11:11:39.241Z,102186.41
2022-10-06T11:14:10.953Z,102187.97
2022-10-06T11:16:41.797Z,102174.81
2022-10-06T11:19:25.917Z,102177.63
2022-10-06T11:21:58.993Z,102188.81
2022-10-06T11:24:32.761Z,102184.66
2022-10-06T11:27:19.260Z,102184.66
2022-10-06T11:29:55.482Z,102178.69
2022-10-06T11:32:27.091Z,102173.97
2022-10-06T11:34:55.033Z,102174.38
2022-10-06T11:37:34.536Z,102176.81
2022-10-06T11:40:18.033Z,102184.66
2022-10-06T11:42:53.734Z,102177.94
2022-10-06T11:45:24.969Z,102182.13
2022-10-06T11:48:10.669Z,102174.41
2022-10-06T11:50:39.331Z,102182.13
2022-10-06T11:53:07.483Z,102185.09
2022-10-06T11:55:35.062Z,102182.91
2022-10-06T11:58:37.441Z,102171.75
2022-10-06T12:01:02.094Z,102178.28
2022-10-06T12:04:06.203Z,102176.56
2022-10-06T12:06:57.345Z,102176.00
2022-10-06T12:09:53.019Z,102155.94
2022-10-06T12:13:06.159Z,102158.59
2022-10-06T12:17:05.675Z,102168.19
2022-10-06T12:18:49.315Z,102165.75
2022-10-06T12:21:26.232Z,102148.34
2022-10-06T12:24:02.042Z,102162.50
2022-10-06T12:26:42.241Z,102171.75
2022-10-06T12:29:23.128Z,102162.94
2022-10-06T12:32:00.705Z,102163.34
2022-10-06T12:34:47.112Z,102167.31
2022-10-06T12:37:22.188Z,102161.28
2022-10-06T12:39:49.724Z,102154.75
2022-10-06T12:42:20.781Z,102140.09
2022-10-06T12:44:51.106Z,102148.72
2022-10-06T12:47:24.828Z,102162.22
2022-10-06T12:49:54.669Z,102149.44
2022-10-06T12:52:34.969Z,102157.69
2022-10-06T12:55:18.324Z,102158.81
2022-10-06T12:57:47.163Z,102149.88
2022-10-06T13:03:01.060Z,102150.50
2022-10-06T13:05:29.128Z,102143.41
2022-10-06T13:07:58.007Z,102149.56
2022-10-06T13:10:25.739Z,102153.47
2022-10-06T13:12:55.335Z,102141.50
2022-10-06T13:15:24.933Z,102149.94
2022-10-06T13:17:54.257Z,102151.88
2022-10-06T13:20:40.993Z,102144.97
2022-10-06T13:23:24.333Z,102146.72
2022-10-06T13:25:57.621Z,102142.81
2022-10-06T13:28:28.534Z,102143.00
2022-10-06T13:30:58.328Z,102144.22
2022-10-06T13:33:28.585Z,102136.81
2022-10-06T13:35:58.853Z,102138.78
2022-10-06T13:38:26.432Z,102134.88
2022-10-06T13:41:07.843Z,102134.28
2022-10-06T13:43:41.162Z,102141.53
2022-10-06T13:46:10.953Z,102142.59
2022-10-06T13:48:45.380Z,102139.06
2022-10-06T13:51:18.780Z,102139.94
2022-10-06T13:53:47.039Z,102136.78
2022-10-06T13:58:57.795Z,102136.47
2022-10-06T14:01:34.585Z,102155.38
2022-10-06T14:04:14.910Z,102139.09
2022-10-06T14:06:50.581Z,102142.38
2022-10-06T14:09:22.619Z,102144.88
2022-10-06T14:11:50.541Z,102135.84
2022-10-06T14:14:18.836Z,102146.50
2022-10-06T14:16:51.790Z,102135.78
2022-10-06T14:19:37.059Z,102128.53
2022-10-06T14:22:07.194Z,102134.47
2022-10-06T14:24:37.366Z,102140.78
2022-10-06T14:27:07.343Z,102133.03
2022-10-06T14:29:37.710Z,102133.75
2022-10-06T14:32:14.056Z,102135.59
2022-10-06T14:34:42.096Z,102141.88
2022-10-06T14:37:15.079Z,102132.94
2022-10-06T14:39:42.961Z,102132.25
2022-10-06T14:42:10.809Z,102146.53
2022-10-06T14:44:38.719Z,102133.06
2022-10-06T14:47:09.311Z,102133.13
2022-10-06T14:49:37.898Z,102127.25
2022-10-06T14:52:09.044Z,102134.13
2022-10-06T14:54:38.634Z,102134.03
2022-10-06T14:57:06.751Z,102133.88
2022-10-06T14:59:34.526Z,102134.81
2022-10-06T15:02:03.072Z,102141.25
2022-10-06T15:04:31.409Z,102136.38
2022-10-06T15:07:16.907Z,102138.28
2022-10-06T15:09:46.045Z,102134.59
2022-10-06T15:12:13.949Z,102125.69
2022-10-06T15:14:41.717Z,102126.19
2022-10-06T15:17:09.449Z,102126.31
2022-10-06T15:19:37.763Z,102123.94
2022-10-06T15:22:06.258Z,102131.19
2022-10-06T15:24:33.995Z,102124.00
2022-10-06T15:27:20.139Z,102132.56
2022-10-06T15:29:50.287Z,102124.75
2022-10-06T15:32:18.054Z,102130.97
2022-10-06T15:34:46.225Z,102138.19
2022-10-06T15:37:13.975Z,102134.66
2022-10-06T15:39:43.186Z,102136.34
2022-10-06T15:42:12.524Z,102121.94
2022-10-06T15:44:40.300Z,102126.91
2022-10-06T15:47:08.502Z,102125.66
2022-10-06T15:49:40.274Z,102139.03
2022-10-06T15:52:08.608Z,102126.63
2022-10-06T15:54:37.832Z,102130.94
2022-10-06T15:57:08.365Z,102125.25
2022-10-06T15:59:39.988Z,102122.28
2022-10-06T16:02:09.840Z,102123.56
2022-10-06T16:04:54.984Z,102128.66
2022-10-06T16:07:22.584Z,102136.47
2022-10-06T16:09:51.131Z,102118.91
2022-10-06T16:12:21.216Z,102127.72
2022-10-06T16:14:50.309Z,102128.34
2022-10-06T16:17:18.460Z,102123.34
2022-10-06T16:19:46.862Z,102120.13
2022-10-06T16:22:17.928Z,102129.88
2022-10-06T16:24:45.541Z,102132.03
2022-10-06T16:27:15.382Z,102130.84
2022-10-06T16:29:44.321Z,102128.47
2022-10-06T16:32:13.354Z,102128.47
2022-10-06T16:34:41.087Z,102134.94
2022-10-06T16:37:08.830Z,102130.34
2022-10-06T16:39:36.558Z,102127.91
2022-10-06T16:42:04.365Z,102126.47
2022-10-06T16:44:32.118Z,102140.25
2022-10-06T16:47:00.118Z,102136.09
2022-10-06T16:49:29.397Z,102134.91
2022-10-06T16:51:57.214Z,102132.84
2022-10-06T16:54:24.933Z,102136.91
2022-10-06T16:56:54.734Z,102140.78
2022-10-06T16:59:25.878Z,102133.88
2022-10-06T17:01:53.631Z,102137.09
2022-10-06T17:04:22.366Z,102141.94
2022-10-06T17:06:52.853Z,102148.63
2022-10-06T17:09:21.643Z,102147.13
2022-10-06T17:11:51.017Z,102151.22
2022-10-06T17:14:19.563Z,102147.78
2022-10-06T17:16:48.874Z,102147.91
2022-10-06T17:19:18.040Z,102159.53
2022-10-06T17:21:48.709Z,102151.25
2022-10-06T17:24:19.951Z,102158.88
2022-10-06T17:26:49.346Z,102164.47
2022-10-06T17:29:18.676Z,102156.84
2022-10-06T17:31:46.636Z,102164.03
2022-10-06T17:34:20.387Z,102159.59
2022-10-06T17:36:50.614Z,102164.09
2022-10-06T17:39:20.741Z,102158.25
2022-10-06T17:41:49.450Z,102161.81
2022-10-06T17:44:22.568Z,102158.13
2022-10-06T17:46:51.951Z,102161.09
2022-10-06T17:49:21.224Z,102167.56
2022-10-06T17:51:49.455Z,102164.59
2022-10-06T17:54:20.702Z,102154.50
2022-10-06T17:56:49.495Z,102165.06
2022-10-06T17:59:18.798Z,102156.69
2022-10-06T18:01:46.462Z,102168.97
2022-10-06T18:04:16.393Z,102169.31
2022-10-06T18:06:44.892Z,102164.28
2022-10-06T18:09:13.051Z,102167.91
2022-10-06T18:11:43.354Z,102162.00
2022-10-06T18:14:12.444Z,102163.19
2022-10-06T18:16:41.379Z,102167.84
2022-10-06T18:19:10.593Z,102160.09
2022-10-06T18:21:39.568Z,102161.34
2022-10-06T18:24:08.917Z,102162.47
2022-10-06T18:26:38.293Z,102165.00
2022-10-06T18:29:07.619Z,102173.25
2022-10-06T18:31:35.932Z,102164.63
2022-10-06T18:36:51.712Z,102167.88
2022-10-06T18:39:19.323Z,102159.91
2022-10-06T18:41:50.811Z,102162.59
2022-10-06T18:44:39.703Z,102172.50
2022-10-06T18:47:33.323Z,102170.28
2022-10-06T18:50:00.852Z,102172.97
2022-10-06T18:52:28.366Z,102170.75
2022-10-06T18:54:55.905Z,102168.31
2022-10-06T18:57:27.723Z,102171.13
2022-10-06T18:59:57.331Z,102167.09
2022-10-06T19:02:26.235Z,102171.00
2022-10-06T19:04:53.860Z,102167.72
2022-10-06T19:07:21.396Z,102167.66
2022-10-06T19:09:49.990Z,102171.19
2022-10-06T19:12:17.531Z,102172.88
2022-10-06T19:14:47.698Z,102171.25
2022-10-06T19:17:17.028Z,102175.66
2022-10-06T19:19:46.111Z,102178.38
2022-10-06T19:22:14.669Z,102181.84
2022-10-06T19:24:43.458Z,102177.38
2022-10-06T19:27:12.816Z,102176.94
2022-10-06T19:29:45.312Z,102173.59
2022-10-06T19:32:17.317Z,102177.50
2022-10-06T19:34:45.422Z,102179.53
2022-10-06T19:37:12.983Z,102184.75
2022-10-06T19:39:43.276Z,102174.13
2022-10-06T19:42:28.911Z,102176.66
2022-10-06T19:44:56.504Z,102181.00
2022-10-06T19:47:25.555Z,102182.94
2022-10-06T19:49:57.829Z,102168.09
2022-10-06T19:52:26.555Z,102178.63
2022-10-06T19:54:54.086Z,102168.94
2022-10-06T19:57:21.692Z,102176.03
2022-10-06T19:59:50.715Z,102171.63
2022-10-06T20:02:18.246Z,102167.22
2022-10-06T20:04:47.299Z,102170.69
2022-10-06T20:07:14.797Z,102167.22
2022-10-06T20:09:42.383Z,102175.19
2022-10-06T20:12:09.930Z,102160.38
2022-10-06T20:14:37.696Z,102168.94
2022-10-06T20:17:05.982Z,102163.53
2022-10-06T20:19:34.295Z,102165.13
2022-10-06T20:22:03.156Z,102164.94
2022-10-06T20:24:31.730Z,102163.31
2022-10-06T20:26:59.275Z,102157.97
2022-10-06T20:29:28.024Z,102162.47
2022-10-06T20:31:58.669Z,102157.19
2022-10-06T20:34:31.742Z,102155.66
2022-10-06T20:37:01.803Z,102161.78
2022-10-06T20:39:49.677Z,102158.31
2022-10-06T20:42:17.733Z,102152.09
2022-10-06T20:44:45.270Z,102158.06
2022-10-06T20:47:13.220Z,102156.28
2022-10-06T20:49:42.369Z,102142.47
2022-10-06T20:52:10.588Z,102146.84
2022-10-06T20:54:39.452Z,102143.44
2022-10-06T20:57:09.224Z,102140.78
2022-10-06T20:59:36.912Z,102145.09
2022-10-06T21:02:05.029Z,102135.44
2022-10-06T21:04:32.935Z,102137.97
2022-10-06T21:07:01.519Z,102138.97
2022-10-06T21:09:29.226Z,102136.19
2022-10-06T21:11:58.207Z,102137.78
2022-10-06T21:14:25.995Z,102139.38
2022-10-06T21:16:54.179Z,102145.41
2022-10-06T21:19:21.787Z,102136.69
2022-10-06T21:21:51.697Z,102136.88
2022-10-06T21:24:19.370Z,102139.59
2022-10-06T21:26:47.313Z,102136.78
2022-10-06T21:29:16.522Z,102128.25
2022-10-06T21:31:44.321Z,102135.44
2022-10-06T21:34:12.011Z,102125.75
2022-10-06T21:36:39.572Z,102129.31
2022-10-06T21:39:07.888Z,102128.44
2022-10-06T21:41:38.618Z,102121.44
2022-10-06T21:44:07.979Z,102122.34
2022-10-06T21:46:38.469Z,102118.75
2022-10-06T21:49:07.771Z,102116.13
2022-10-06T21:51:35.338Z,102116.84
2022-10-06T21:54:03.095Z,102114.25
2022-10-06T21:56:32.621Z,102115.81
2022-10-06T21:59:00.818Z,102104.34
2022-10-06T22:01:29.855Z,102098.47
2022-10-06T22:04:00.131Z,102094.00
2022-10-06T22:06:28.174Z,102088.69
2022-10-06T22:08:56.527Z,102091.47
2022-10-06T22:11:26.145Z,102093.38
2022-10-06T22:13:55.317Z,102087.25
2022-10-06T22:16:24.319Z,102089.75
2022-10-06T22:18:52.277Z,102086.28
2022-10-06T22:21:23.221Z,102086.28
2022-10-06T22:23:55.579Z,102084.66
2022-10-06T22:26:23.715Z,102084.28
2022-10-06T22:28:52.566Z,102076.47
2022-10-06T22:31:24.937Z,102078.09
2022-10-06T22:33:55.264Z,102082.75
2022-10-06T22:36:24.582Z,102077.38
2022-10-06T22:38:52.301Z,102081.13
2022-10-06T22:41:20.197Z,102075.09
2022-10-06T22:43:47.802Z,102076.00
2022-10-06T22:46:16.052Z,102066.03
2022-10-06T22:48:43.589Z,102058.56
2022-10-06T22:51:11.116Z,102057.75
2022-10-06T22:53:40.002Z,102052.91
2022-10-06T22:56:07.738Z,102056.22
2022-10-06T22:58:36.126Z,102049.34
2022-10-06T23:01:10.176Z,102046.03
2022-10-06T23:03:37.930Z,102050.66
2022-10-06T23:06:06.753Z,102042.03
2022-10-06T23:08:35.489Z,102044.53
2022-10-06T23:11:09.660Z,102038.63
2022-10-06T23:13:37.418Z,102034.41
2022-10-06T23:16:07.815Z,102043.06
2022-10-06T23:18:37.578Z,102034.22
2022-10-06T23:21:05.800Z,102028.41
2022-10-06T23:23:33.482Z,102032.81
2022-10-06T23:26:07.141Z,102029.09
2022-10-06T23:28:34.970Z,102022.28
2022-10-06T23:31:04.162Z,102018.09
2022-10-06T23:33:32.107Z,102020.75
2022-10-06T23:35:59.909Z,102009.34
2022-10-06T23:38:27.858Z,102017.97
2022-10-06T23:40:56.107Z,102015.03
2022-10-06T23:43:25.357Z,102013.22
2022-10-06T23:45:52.990Z,102007.19
2022-10-06T23:48:20.655Z,102008.03
2022-10-06T23:50:58.893Z,102009.72
2022-10-06T23:53:26.987Z,102000.38
2022-10-06T23:55:54.612Z,102000.09
2022-10-06T23:58:22.670Z,101999.56
